Airfield :
LOGIN :

Register | Disclaimer

   EN    FR    IT 

 










Legend :    VFR   Marginal VFR   IFR   Intensive IFR   Very Intensive IFR
Visi :
Ceiling :
>= 8 km
>= 3000ft
5 to 8 km
1000 to 3000 ft
1500m to 5 km
500 to 1000 ft
800 to 1500m
200 to 500 ft
< 800m
< 200 ft
Symbols :   Thunderstorms  Fog  Heavy snow  Heavy precipitations  Wind > 20 kt
SIGMETs :     Misc.  Thunderstorms  Icing  Turbulence  Mountain Waves  Volcanic Ashes






- Airport Elevation : 233 ft
- IATA code : REU


LERS - Reus Tarragona

CURRENT METAR :
  • 281400Z 20007KT 160V240 9999 FEW040 21/11 Q1019

EXPIRED METARs :
  • 281330Z 20007KT 160V240 9999 FEW040 21/11 Q1019
  • 281300Z 19009KT 120V240 CAVOK 21/10 Q1019
  • 281230Z 19009KT 130V230 CAVOK 22/10 Q1019
  • 281200Z 14006KT 080V200 CAVOK 22/10 Q1020
  • 281130Z VRB06KT CAVOK 21/10 Q1020

TAF TAF LERS
Valid from the 28 at 09:00 until the 29 at 09:00 UTC


280800Z 2809/2909 VRB03KT 9999 FEW025 TX24/2812Z TN10/2906Z
TEMPO 2812/2818 26008KT



MET'MAP, your aeronautical weather chart ! - Copyright ORBIFLY December 2007 - Disclaimer

ORBIFLY MET'MAP TEAM :

Programming & Development : Alexandra Zaïnal
Concept & original design : Baudouin d'Aumeries
Assistance for programming : Marc-Olivier Méhu
Technical & hardware support : Manuel Goepfert

Contact : metmap@orbifly.com




SOURCES & CREDITS :

   NOAA